createdAt,value
2022-12-29T00:00:09.364Z,1.87
2022-12-29T00:02:42.466Z,1.77
2022-12-29T00:05:09.659Z,1.07
2022-12-29T00:07:36.443Z,2.00
2022-12-29T00:10:03.848Z,1.87
2022-12-29T00:12:50.589Z,1.90
2022-12-29T00:15:36.340Z,2.57
2022-12-29T00:18:03.169Z,1.17
2022-12-29T00:20:48.807Z,1.10
2022-12-29T00:23:33.897Z,1.30
2022-12-29T00:26:22.945Z,1.10
2022-12-29T00:29:09.647Z,1.20
2022-12-29T00:31:59.745Z,1.70
2022-12-29T00:34:45.000Z,0.87
2022-12-29T00:37:12.321Z,2.00
2022-12-29T00:39:57.541Z,0.70
2022-12-29T00:42:44.108Z,1.00
2022-12-29T00:45:11.463Z,2.30
2022-12-29T00:47:38.317Z,1.53
2022-12-29T00:50:05.720Z,1.87
2022-12-29T00:52:32.726Z,1.53
2022-12-29T00:54:59.775Z,1.37
2022-12-29T00:57:26.583Z,2.00
2022-12-29T00:59:54.434Z,0.80
2022-12-29T01:02:21.630Z,1.30
2022-12-29T01:04:48.836Z,1.27
2022-12-29T01:07:17.167Z,1.57
2022-12-29T01:10:04.178Z,1.87
2022-12-29T01:12:43.255Z,1.40
2022-12-29T01:15:13.575Z,1.27
2022-12-29T01:17:42.723Z,1.80
2022-12-29T01:20:10.464Z,1.17
2022-12-29T01:22:37.799Z,1.80
2022-12-29T01:25:06.088Z,1.00
2022-12-29T01:27:35.893Z,2.27
2022-12-29T01:30:02.948Z,1.67
2022-12-29T01:32:29.988Z,2.00
2022-12-29T01:34:56.822Z,1.60
2022-12-29T01:37:23.921Z,1.73
2022-12-29T01:39:50.690Z,0.90
2022-12-29T01:42:19.931Z,1.57
2022-12-29T01:44:52.180Z,1.50
2022-12-29T01:47:31.830Z,1.47
2022-12-29T01:50:04.044Z,1.33
2022-12-29T01:52:34.737Z,0.70
2022-12-29T01:55:04.719Z,3.33
2022-12-29T01:57:38.033Z,1.57
2022-12-29T02:00:13.922Z,1.43
2022-12-29T02:02:48.544Z,1.37
2022-12-29T02:05:34.992Z,1.13
2022-12-29T02:08:02.562Z,3.10
2022-12-29T02:10:32.808Z,1.77
2022-12-29T02:13:00.939Z,1.40
2022-12-29T02:16:01.384Z,0.97
2022-12-29T02:19:00.516Z,0.50
2022-12-29T02:21:27.457Z,1.63
2022-12-29T02:24:16.756Z,0.90
2022-12-29T02:26:57.368Z,1.80
2022-12-29T02:29:44.228Z,1.07
2022-12-29T02:32:20.480Z,0.67
2022-12-29T02:35:20.785Z,1.00
2022-12-29T02:38:07.063Z,0.97
2022-12-29T02:40:44.258Z,0.83
2022-12-29T02:43:20.759Z,2.10
2022-12-29T02:46:09.654Z,2.10
2022-12-29T02:48:45.209Z,1.00
2022-12-29T02:51:34.519Z,1.67
2022-12-29T02:54:20.505Z,1.67
2022-12-29T02:56:48.860Z,0.90
2022-12-29T02:59:16.827Z,2.13
2022-12-29T03:02:21.587Z,0.50
2022-12-29T03:05:21.714Z,0.50
2022-12-29T03:08:10.215Z,2.00
2022-12-29T03:10:58.884Z,2.37
2022-12-29T03:13:53.655Z,1.43
2022-12-29T03:17:03.429Z,0.87
2022-12-29T03:19:37.812Z,0.67
2022-12-29T03:22:27.682Z,0.83
2022-12-29T03:25:36.614Z,0.80
2022-12-29T03:28:16.368Z,0.50
2022-12-29T03:30:47.498Z,0.90
2022-12-29T03:33:23.067Z,1.30
2022-12-29T03:35:52.984Z,0.90
2022-12-29T03:38:28.389Z,1.03
2022-12-29T03:41:00.122Z,1.43
2022-12-29T03:43:29.769Z,0.90
2022-12-29T03:45:57.186Z,1.73
2022-12-29T03:48:26.727Z,0.80
2022-12-29T03:50:56.065Z,0.60
2022-12-29T03:53:23.653Z,0.80
2022-12-29T03:55:50.818Z,0.73
2022-12-29T03:58:17.926Z,0.90
2022-12-29T04:00:59.104Z,0.60
2022-12-29T04:03:26.249Z,0.90
2022-12-29T04:05:53.126Z,0.57
2022-12-29T04:08:20.312Z,0.90
2022-12-29T04:10:51.933Z,0.30
2022-12-29T04:13:22.075Z,0.57
2022-12-29T04:15:49.883Z,0.50
2022-12-29T04:18:18.875Z,1.23
2022-12-29T04:21:01.748Z,0.37
2022-12-29T04:23:31.815Z,1.27
2022-12-29T04:25:59.228Z,1.00
2022-12-29T04:28:27.772Z,0.60
2022-12-29T04:31:08.861Z,0.47
2022-12-29T04:33:39.104Z,1.00
2022-12-29T04:36:07.064Z,0.70
2022-12-29T04:38:36.084Z,0.93
2022-12-29T04:41:05.899Z,0.60
2022-12-29T04:43:35.034Z,0.93
2022-12-29T04:46:34.777Z,3.43
2022-12-29T04:49:11.101Z,0.70
2022-12-29T04:51:52.907Z,2.63
2022-12-29T04:54:20.744Z,1.57
2022-12-29T04:56:55.396Z,1.07
2022-12-29T04:59:22.768Z,1.00
2022-12-29T05:01:52.948Z,1.57
2022-12-29T05:04:20.230Z,0.97
2022-12-29T05:06:47.454Z,2.00
2022-12-29T05:09:14.926Z,2.27
2022-12-29T05:11:42.936Z,0.97
2022-12-29T05:14:10.703Z,1.37
2022-12-29T05:16:38.139Z,0.93
2022-12-29T05:19:06.726Z,1.30
2022-12-29T05:21:35.080Z,2.60
2022-12-29T05:24:02.478Z,1.83
2022-12-29T05:26:29.713Z,1.90
2022-12-29T05:29:07.771Z,1.60
2022-12-29T05:31:36.713Z,1.73
2022-12-29T05:34:05.521Z,0.90
2022-12-29T05:36:37.488Z,1.50
2022-12-29T05:39:09.229Z,1.03
2022-12-29T05:41:37.166Z,2.40
2022-12-29T05:44:16.525Z,1.53
2022-12-29T05:46:50.951Z,1.80
2022-12-29T05:49:37.091Z,3.57
2022-12-29T05:52:20.373Z,3.23
2022-12-29T05:54:47.768Z,3.13
2022-12-29T05:57:18.211Z,1.43
2022-12-29T05:59:51.050Z,1.03
2022-12-29T06:02:18.134Z,1.73
2022-12-29T06:04:45.639Z,2.40
2022-12-29T06:07:13.802Z,1.90
2022-12-29T06:09:43.530Z,6.00
2022-12-29T06:12:13.383Z,6.33
2022-12-29T06:14:43.684Z,6.33
2022-12-29T06:17:11.601Z,2.77
2022-12-29T06:19:38.692Z,1.83
2022-12-29T06:22:06.181Z,1.93
2022-12-29T06:24:35.929Z,2.30
2022-12-29T06:27:03.218Z,2.30
2022-12-29T06:29:30.543Z,2.90
2022-12-29T06:31:59.321Z,2.40
2022-12-29T06:34:27.656Z,0.90
2022-12-29T06:36:54.659Z,1.30
2022-12-29T06:39:21.530Z,1.60
2022-12-29T06:42:03.262Z,1.67
2022-12-29T06:44:44.035Z,1.60
2022-12-29T06:47:11.616Z,1.83
2022-12-29T06:49:38.515Z,1.87
2022-12-29T06:52:12.272Z,1.87
2022-12-29T06:54:39.999Z,2.30
2022-12-29T06:57:06.768Z,1.80
2022-12-29T06:59:34.760Z,1.40
2022-12-29T07:02:03.415Z,1.97
2022-12-29T07:04:30.432Z,4.00
2022-12-29T07:06:57.600Z,3.83
2022-12-29T07:09:24.880Z,1.40
2022-12-29T07:11:51.829Z,2.73
2022-12-29T07:14:18.735Z,2.50
2022-12-29T07:16:45.767Z,2.10
2022-12-29T07:19:12.847Z,2.87
2022-12-29T07:21:47.193Z,2.13
2022-12-29T07:24:13.995Z,0.80
2022-12-29T07:26:42.374Z,1.70
2022-12-29T07:29:09.093Z,2.60
2022-12-29T07:31:36.081Z,0.93
2022-12-29T07:34:02.966Z,2.97
2022-12-29T07:36:34.318Z,0.80
2022-12-29T07:39:01.981Z,1.63
2022-12-29T07:41:28.669Z,2.20
2022-12-29T07:43:55.503Z,1.17
2022-12-29T07:46:55.192Z,0.93
2022-12-29T07:49:23.928Z,2.30
2022-12-29T07:51:50.788Z,3.00
2022-12-29T07:54:19.465Z,1.80
2022-12-29T07:56:46.724Z,1.50
2022-12-29T07:59:13.641Z,2.13
2022-12-29T08:01:40.626Z,1.30
2022-12-29T08:04:08.294Z,0.60
2022-12-29T08:06:35.064Z,0.97
2022-12-29T08:09:11.045Z,0.47
2022-12-29T08:11:41.534Z,0.67
2022-12-29T08:14:08.296Z,1.03
2022-12-29T08:16:35.319Z,2.17
2022-12-29T08:19:02.635Z,0.70
2022-12-29T08:21:29.820Z,1.50
2022-12-29T08:23:57.011Z,0.67
2022-12-29T08:26:24.089Z,0.97
2022-12-29T08:28:54.117Z,1.57
2022-12-29T08:31:20.973Z,1.10
2022-12-29T08:33:47.820Z,0.67
2022-12-29T08:36:15.284Z,0.90
2022-12-29T08:38:42.028Z,1.33
2022-12-29T08:41:08.777Z,2.13
2022-12-29T08:43:35.593Z,0.73
2022-12-29T08:46:02.411Z,0.37
2022-12-29T08:48:29.433Z,0.80
2022-12-29T08:50:56.142Z,1.23
2022-12-29T08:53:22.999Z,1.10
2022-12-29T08:56:03.692Z,1.60
2022-12-29T08:58:36.450Z,0.70
2022-12-29T09:01:03.566Z,1.30
2022-12-29T09:06:18.587Z,1.30
2022-12-29T09:08:45.825Z,2.10
2022-12-29T09:11:19.202Z,1.27
2022-12-29T09:13:46.337Z,1.10
2022-12-29T09:16:13.533Z,1.73
2022-12-29T09:18:40.993Z,1.77
2022-12-29T09:21:10.349Z,0.93
2022-12-29T09:23:37.703Z,0.53
2022-12-29T09:26:04.989Z,1.57
2022-12-29T09:28:31.950Z,1.93
2022-12-29T09:31:00.151Z,0.77
2022-12-29T09:33:27.544Z,1.10
2022-12-29T09:35:56.692Z,2.77
2022-12-29T09:38:24.758Z,1.47
2022-12-29T09:40:57.508Z,1.03
2022-12-29T09:43:47.237Z,2.10
2022-12-29T09:46:29.480Z,2.40
2022-12-29T09:49:40.783Z,3.07
2022-12-29T09:52:30.617Z,1.27
2022-12-29T09:55:03.279Z,1.37
2022-12-29T09:57:33.244Z,1.27
2022-12-29T10:00:10.700Z,2.60
2022-12-29T10:02:45.023Z,3.53
2022-12-29T10:05:32.807Z,2.00
2022-12-29T10:08:41.337Z,2.73
2022-12-29T10:11:33.345Z,1.43
2022-12-29T10:14:15.678Z,1.00
2022-12-29T10:17:07.372Z,2.33
2022-12-29T10:19:46.507Z,1.27
2022-12-29T10:22:36.191Z,2.33
2022-12-29T10:25:25.109Z,2.90
2022-12-29T10:27:58.281Z,2.37
2022-12-29T10:30:25.327Z,3.73
2022-12-29T10:32:59.421Z,1.37
2022-12-29T10:35:32.090Z,1.30
2022-12-29T10:38:23.975Z,1.90
2022-12-29T10:41:04.835Z,1.57
2022-12-29T10:43:46.782Z,1.17
2022-12-29T10:46:38.083Z,4.50
2022-12-29T10:49:18.022Z,0.90
2022-12-29T10:51:52.818Z,6.20
2022-12-29T10:54:26.110Z,5.80
2022-12-29T10:56:55.747Z,3.47
2022-12-29T10:59:31.257Z,2.17
2022-12-29T11:02:10.393Z,3.03
2022-12-29T11:04:53.558Z,4.27
2022-12-29T11:07:26.911Z,1.70
2022-12-29T11:09:55.024Z,1.17
2022-12-29T11:12:28.377Z,2.83
2022-12-29T11:15:08.569Z,2.30
2022-12-29T11:17:53.482Z,2.00
2022-12-29T11:20:36.455Z,2.73
2022-12-29T11:23:05.652Z,1.47
2022-12-29T11:25:32.893Z,3.23
2022-12-29T11:28:05.230Z,2.37
2022-12-29T11:30:33.507Z,3.07
2022-12-29T11:33:04.455Z,1.70
2022-12-29T11:35:37.604Z,3.13
2022-12-29T11:38:19.520Z,3.27
2022-12-29T11:40:46.268Z,4.80
2022-12-29T11:43:35.189Z,2.10
2022-12-29T11:46:05.707Z,2.83
2022-12-29T11:48:42.624Z,3.20
2022-12-29T11:51:11.644Z,3.60
2022-12-29T11:53:44.983Z,1.23
2022-12-29T11:56:21.134Z,2.93
2022-12-29T11:58:50.385Z,2.83
2022-12-29T12:01:39.681Z,4.17
2022-12-29T12:04:16.231Z,2.17
2022-12-29T12:07:02.177Z,2.17
2022-12-29T12:09:35.863Z,2.53
2022-12-29T12:12:04.409Z,2.47
2022-12-29T12:14:35.701Z,2.60
2022-12-29T12:18:07.162Z,3.47
2022-12-29T12:20:45.208Z,2.53
2022-12-29T12:23:28.200Z,2.90
2022-12-29T12:26:18.015Z,2.70
2022-12-29T12:29:02.026Z,3.47
2022-12-29T12:31:54.078Z,2.97
2022-12-29T12:34:33.235Z,4.90
2022-12-29T12:37:08.208Z,1.77
2022-12-29T12:39:51.145Z,1.70
2022-12-29T12:42:52.829Z,2.67
2022-12-29T12:45:33.042Z,2.63
2022-12-29T12:48:10.882Z,2.37
2022-12-29T12:50:46.646Z,4.27
2022-12-29T12:53:34.963Z,4.10
2022-12-29T12:56:20.547Z,2.93
2022-12-29T12:59:12.684Z,2.37
2022-12-29T13:01:54.484Z,2.87
2022-12-29T13:04:31.558Z,5.17
2022-12-29T13:07:22.387Z,2.77
2022-12-29T13:10:15.394Z,1.87
2022-12-29T13:12:54.225Z,2.17
2022-12-29T13:15:44.102Z,5.07
2022-12-29T13:18:30.510Z,3.50
2022-12-29T13:21:25.072Z,4.57
2022-12-29T13:24:11.936Z,2.43
2022-12-29T13:26:46.367Z,2.50
2022-12-29T13:29:31.516Z,1.33
2022-12-29T13:32:24.756Z,5.10
2022-12-29T13:35:58.849Z,2.40
2022-12-29T13:38:35.415Z,3.60
2022-12-29T13:41:13.967Z,3.47
2022-12-29T13:43:45.389Z,2.07
2022-12-29T13:46:22.523Z,2.47
2022-12-29T13:48:59.955Z,3.53
2022-12-29T13:51:28.599Z,3.10
2022-12-29T13:53:55.824Z,1.93
2022-12-29T13:56:30.627Z,3.60
2022-12-29T13:59:10.653Z,3.13
2022-12-29T14:01:48.085Z,3.03
2022-12-29T14:04:22.889Z,3.33
2022-12-29T14:07:04.704Z,4.03
2022-12-29T14:09:48.546Z,2.53
2022-12-29T14:12:37.321Z,2.93
2022-12-29T14:15:26.351Z,2.27
2022-12-29T14:18:30.259Z,4.20
2022-12-29T14:20:58.545Z,2.80
2022-12-29T14:23:43.890Z,3.73
2022-12-29T14:26:12.382Z,2.23
2022-12-29T14:29:05.220Z,2.03
2022-12-29T14:31:32.094Z,4.10
2022-12-29T14:34:08.443Z,2.80
2022-12-29T14:36:56.184Z,2.70
2022-12-29T14:39:44.096Z,2.90
2022-12-29T14:42:10.924Z,4.07
2022-12-29T14:44:50.743Z,1.43
2022-12-29T14:47:20.913Z,2.37
2022-12-29T14:49:48.112Z,3.60
2022-12-29T14:52:25.899Z,7.00
2022-12-29T14:54:53.679Z,2.63
2022-12-29T14:57:49.063Z,2.93
2022-12-29T15:00:19.738Z,2.90
2022-12-29T15:02:50.905Z,2.83
2022-12-29T15:05:58.950Z,2.53
2022-12-29T15:08:29.437Z,2.77
2022-12-29T15:11:13.076Z,2.73
2022-12-29T15:13:43.509Z,4.27
2022-12-29T15:16:34.885Z,3.77
2022-12-29T15:19:02.006Z,3.23
2022-12-29T15:21:33.991Z,2.70
2022-12-29T15:24:01.780Z,2.87
2022-12-29T15:26:56.728Z,3.73
2022-12-29T15:29:38.246Z,3.00
2022-12-29T15:32:17.483Z,3.83
2022-12-29T15:34:46.966Z,3.00
2022-12-29T15:37:36.473Z,1.63
2022-12-29T15:40:04.569Z,4.37
2022-12-29T15:42:51.709Z,3.47
2022-12-29T15:45:18.557Z,2.30
2022-12-29T15:47:49.607Z,4.03
2022-12-29T15:50:25.957Z,3.43
2022-12-29T15:52:52.864Z,3.73
2022-12-29T15:55:29.571Z,3.43
2022-12-29T15:58:00.813Z,2.73
2022-12-29T16:00:33.631Z,2.67
2022-12-29T16:03:03.404Z,4.17
2022-12-29T16:05:39.307Z,2.03
2022-12-29T16:08:34.235Z,1.83
2022-12-29T16:11:03.888Z,3.90
2022-12-29T16:13:40.048Z,2.37
2022-12-29T16:16:20.261Z,2.30
2022-12-29T16:18:51.845Z,3.60
2022-12-29T16:21:29.481Z,4.77
2022-12-29T16:24:01.085Z,2.70
2022-12-29T16:26:28.138Z,5.37
2022-12-29T16:29:01.730Z,4.33
2022-12-29T16:31:36.279Z,3.77
2022-12-29T16:34:34.802Z,4.53
2022-12-29T16:37:03.843Z,3.20
2022-12-29T16:39:35.062Z,3.03
2022-12-29T16:42:02.497Z,2.87
2022-12-29T16:44:31.600Z,2.87
2022-12-29T16:47:10.537Z,3.60
2022-12-29T16:49:40.509Z,4.20
2022-12-29T16:52:36.184Z,4.27
2022-12-29T16:55:04.311Z,3.63
2022-12-29T16:57:37.578Z,3.97
2022-12-29T17:00:08.783Z,4.00
2022-12-29T17:02:45.542Z,2.60
2022-12-29T17:05:16.339Z,5.33
2022-12-29T17:07:43.492Z,3.73
2022-12-29T17:10:10.570Z,3.67
2022-12-29T17:12:38.056Z,3.87
2022-12-29T17:15:19.477Z,3.10
2022-12-29T17:17:48.983Z,3.10
2022-12-29T17:20:22.869Z,2.80
2022-12-29T17:22:54.212Z,3.00
2022-12-29T17:25:24.347Z,3.30
2022-12-29T17:28:00.597Z,4.57
2022-12-29T17:30:33.514Z,4.17
2022-12-29T17:33:13.157Z,3.33
2022-12-29T17:35:40.065Z,3.90
2022-12-29T17:38:31.380Z,4.03
2022-12-29T17:40:59.315Z,14.90
2022-12-29T17:43:30.087Z,6.13
2022-12-29T17:46:01.520Z,6.17
2022-12-29T17:48:28.410Z,4.80
2022-12-29T17:50:58.045Z,2.50
2022-12-29T17:53:27.817Z,6.37
2022-12-29T17:55:54.747Z,3.23
2022-12-29T17:58:24.429Z,4.40
2022-12-29T18:00:57.214Z,8.17
2022-12-29T18:03:44.235Z,4.73
2022-12-29T18:06:12.290Z,3.30
2022-12-29T18:08:40.771Z,4.63
2022-12-29T18:11:25.938Z,3.73
2022-12-29T18:13:54.207Z,4.93
2022-12-29T18:16:23.397Z,3.23
2022-12-29T18:18:50.336Z,4.97
2022-12-29T18:21:22.762Z,5.30
2022-12-29T18:23:50.381Z,2.90
2022-12-29T18:26:29.115Z,4.00
2022-12-29T18:28:59.126Z,3.40
2022-12-29T18:31:27.372Z,4.53
2022-12-29T18:33:54.987Z,4.27
2022-12-29T18:36:22.561Z,4.70
2022-12-29T18:38:50.613Z,4.90
2022-12-29T18:41:29.669Z,3.83
2022-12-29T18:43:57.503Z,6.70
2022-12-29T18:46:24.663Z,3.93
2022-12-29T18:48:52.659Z,4.53
2022-12-29T18:51:21.659Z,5.83
2022-12-29T18:53:49.496Z,3.00
2022-12-29T18:56:16.411Z,5.63
2022-12-29T18:58:43.116Z,6.37
2022-12-29T19:01:26.216Z,6.20
2022-12-29T19:03:53.797Z,4.43
2022-12-29T19:06:21.436Z,3.63
2022-12-29T19:08:48.196Z,7.60
2022-12-29T19:11:15.077Z,3.87
2022-12-29T19:13:41.787Z,3.23
2022-12-29T19:16:18.732Z,5.47
2022-12-29T19:18:50.002Z,3.70
2022-12-29T19:21:22.071Z,3.87
2022-12-29T19:23:49.212Z,7.20
2022-12-29T19:26:31.303Z,4.07
2022-12-29T19:28:59.508Z,7.57
2022-12-29T19:31:26.591Z,6.77
2022-12-29T19:33:53.814Z,3.73
2022-12-29T19:36:21.756Z,7.17
2022-12-29T19:38:48.641Z,4.40
2022-12-29T19:41:16.065Z,6.70
2022-12-29T19:43:43.732Z,5.00
2022-12-29T19:46:13.960Z,4.03
2022-12-29T19:48:41.086Z,6.90
2022-12-29T19:51:12.104Z,5.50
2022-12-29T19:53:39.153Z,5.43
2022-12-29T19:56:08.000Z,6.93
2022-12-29T19:58:36.605Z,6.70
2022-12-29T20:01:12.337Z,4.90
2022-12-29T20:03:39.899Z,6.53
2022-12-29T20:06:08.848Z,5.27
2022-12-29T20:08:37.342Z,5.37
2022-12-29T20:11:05.833Z,4.57
2022-12-29T20:13:34.247Z,3.97
2022-12-29T20:16:03.773Z,3.30
2022-12-29T20:18:31.762Z,6.23
2022-12-29T20:21:03.634Z,5.10
2022-12-29T20:23:31.546Z,3.60
2022-12-29T20:25:59.027Z,4.50
2022-12-29T20:28:27.483Z,5.37
2022-12-29T20:31:07.281Z,3.53
2022-12-29T20:33:35.216Z,6.47
2022-12-29T20:36:11.268Z,5.27
2022-12-29T20:38:38.969Z,6.80
2022-12-29T20:41:05.795Z,2.70
2022-12-29T20:43:33.296Z,4.70
2022-12-29T20:46:00.307Z,5.70
2022-12-29T20:48:27.520Z,6.03
2022-12-29T20:50:59.188Z,6.10
2022-12-29T20:53:32.220Z,6.33
2022-12-29T20:56:05.911Z,5.40
2022-12-29T20:58:33.317Z,5.07
2022-12-29T21:01:06.370Z,6.10
2022-12-29T21:03:34.031Z,3.67
2022-12-29T21:06:01.116Z,6.17
2022-12-29T21:08:30.227Z,6.50
2022-12-29T21:10:58.724Z,5.77
2022-12-29T21:13:25.796Z,8.20
2022-12-29T21:16:00.690Z,4.50
2022-12-29T21:18:28.778Z,5.03
2022-12-29T21:21:01.441Z,3.90
2022-12-29T21:23:28.800Z,3.77
2022-12-29T21:25:56.293Z,5.07
2022-12-29T21:28:24.485Z,4.47
2022-12-29T21:30:52.167Z,4.77
2022-12-29T21:33:20.395Z,5.67
2022-12-29T21:35:47.717Z,4.03
2022-12-29T21:38:15.254Z,5.77
2022-12-29T21:40:42.128Z,5.40
2022-12-29T21:43:11.489Z,5.00
2022-12-29T21:45:39.627Z,4.80
2022-12-29T21:48:24.199Z,4.57
2022-12-29T21:51:12.628Z,5.93
2022-12-29T21:53:42.251Z,5.00
2022-12-29T21:56:16.284Z,4.67
2022-12-29T21:59:07.742Z,5.60
2022-12-29T22:01:55.604Z,4.77
2022-12-29T22:04:43.944Z,5.77
2022-12-29T22:07:31.408Z,5.20
2022-12-29T22:10:16.793Z,3.67
2022-12-29T22:13:03.003Z,4.37
2022-12-29T22:15:32.821Z,7.20
2022-12-29T22:18:01.377Z,6.00
2022-12-29T22:20:33.987Z,3.50
2022-12-29T22:23:02.643Z,7.17
2022-12-29T22:25:29.903Z,5.87
2022-12-29T22:27:59.436Z,8.67
2022-12-29T22:30:28.462Z,4.27
2022-12-29T22:32:57.228Z,4.93
2022-12-29T22:35:24.691Z,8.07
2022-12-29T22:37:51.634Z,7.37
2022-12-29T22:40:18.509Z,7.00
2022-12-29T22:42:45.516Z,4.27
2022-12-29T22:45:12.391Z,7.20
2022-12-29T22:47:39.614Z,6.47
2022-12-29T22:50:06.964Z,5.67
2022-12-29T22:52:33.713Z,5.83
2022-12-29T22:55:06.507Z,4.87
2022-12-29T22:57:34.571Z,7.83
2022-12-29T23:00:01.323Z,4.97
2022-12-29T23:02:28.544Z,7.43
2022-12-29T23:05:04.422Z,6.07
2022-12-29T23:07:36.426Z,6.23
2022-12-29T23:10:05.038Z,5.87
2022-12-29T23:12:33.112Z,5.40
2022-12-29T23:14:59.764Z,6.17
2022-12-29T23:17:26.900Z,4.73
2022-12-29T23:19:53.878Z,5.80
2022-12-29T23:22:20.876Z,5.63
2022-12-29T23:24:47.740Z,5.10
2022-12-29T23:27:14.744Z,5.77
2022-12-29T23:29:41.487Z,4.67
2022-12-29T23:32:08.593Z,7.33
2022-12-29T23:34:35.261Z,4.70
2022-12-29T23:37:02.035Z,9.17
2022-12-29T23:39:29.403Z,8.30
2022-12-29T23:41:56.497Z,4.03
2022-12-29T23:44:23.733Z,4.53
2022-12-29T23:46:50.616Z,3.47
2022-12-29T23:49:17.607Z,6.33
2022-12-29T23:51:44.453Z,6.03
2022-12-29T23:54:11.200Z,5.63
2022-12-29T23:56:38.124Z,6.13
2022-12-29T23:59:05.819Z,5.50
